<?xml version="1.0" encoding="UTF-8" standalone="no" ?>
<gpx xmlns="http://www.topografix.com/GPX/1/1" xmlns:xsi="http://www.w3.org/2001/XMLSchema-instance" xsi:schemaLocation="http://www.topografix.com/GPX/1/1 http://www.topografix.com/GPX/1/1/gpx.xsd" version="1.1" creator="VisuGPX - https://www.visugpx.com">
  <metadata>
    <name>circuit du chevreuil depart parking cimetiere</name>
  </metadata>
  <trk>
    <name><![CDATA[circuit du chevreuil depart parking Schierenrmiehl]]></name>
    <trkseg>
      <trkpt lat="49.10089" lon="7.0703">
        <ele>231.7</ele>
        <extensions>
          <visugpx:TrkExtension xmlns:visugpx="https://www.visugpx.com/editgpx/">
            <visugpx:node>3</visugpx:node>
            </visugpx:TrkExtension>
        </extensions>
      </trkpt>
      <trkpt lat="49.09908" lon="7.06783">
        <ele>252.6</ele>
        <time>2022-07-02T14:36:52.000Z</time>
      </trkpt>
      <trkpt lat="49.09884" lon="7.06693">
        <ele>252.2</ele>
      </trkpt>
      <trkpt lat="49.09871" lon="7.06646">
        <ele>300.60000610352</ele>
        <time>2022-07-02T14:36:31.000Z</time>
      </trkpt>
      <trkpt lat="49.0985" lon="7.06623">
        <ele>303.20001220703</ele>
        <time>2022-07-02T14:36:08.000Z</time>
      </trkpt>
      <trkpt lat="49.0984" lon="7.06583">
        <ele>304.60000610352</ele>
        <time>2022-07-02T14:35:47.000Z</time>
      </trkpt>
      <trkpt lat="49.09839" lon="7.06542">
        <ele>304.60000610352</ele>
        <time>2022-07-02T14:35:26.000Z</time>
      </trkpt>
      <trkpt lat="49.09829" lon="7.06507">
        <ele>305.60000610352</ele>
        <time>2022-07-02T14:35:02.000Z</time>
      </trkpt>
      <trkpt lat="49.09816" lon="7.06467">
        <ele>307.20001220703</ele>
        <time>2022-07-02T14:34:41.000Z</time>
      </trkpt>
      <trkpt lat="49.09811" lon="7.06426">
        <ele>308.39999389648</ele>
        <time>2022-07-02T14:34:18.000Z</time>
      </trkpt>
      <trkpt lat="49.09807" lon="7.06383">
        <ele>308.20001220703</ele>
        <time>2022-07-02T14:33:57.000Z</time>
      </trkpt>
      <trkpt lat="49.09797" lon="7.06348">
        <ele>307.39999389648</ele>
        <time>2022-07-02T14:33:07.000Z</time>
      </trkpt>
      <trkpt lat="49.09777" lon="7.06325">
        <ele>305.20001220703</ele>
        <time>2022-07-02T14:32:44.000Z</time>
      </trkpt>
      <trkpt lat="49.09755" lon="7.06297">
        <ele>305.60000610352</ele>
        <time>2022-07-02T14:32:23.000Z</time>
      </trkpt>
      <trkpt lat="49.0973" lon="7.06273">
        <ele>307.60000610352</ele>
        <time>2022-07-02T14:32:02.000Z</time>
      </trkpt>
      <trkpt lat="49.09742" lon="7.06281">
        <ele>309</ele>
        <time>2022-07-02T14:31:36.000Z</time>
      </trkpt>
      <trkpt lat="49.09723" lon="7.06247">
        <ele>310.20001220703</ele>
        <time>2022-07-02T14:31:15.000Z</time>
      </trkpt>
      <trkpt lat="49.09719" lon="7.06245">
        <ele>310.20001220703</ele>
        <time>2022-07-02T14:31:13.000Z</time>
      </trkpt>
      <trkpt lat="49.09701" lon="7.06206">
        <ele>311.39999389648</ele>
        <time>2022-07-02T14:30:52.000Z</time>
      </trkpt>
      <trkpt lat="49.09686" lon="7.06178">
        <ele>312.60000610352</ele>
        <time>2022-07-02T14:30:30.000Z</time>
      </trkpt>
      <trkpt lat="49.09675" lon="7.06143">
        <ele>312.20001220703</ele>
        <time>2022-07-02T14:29:52.000Z</time>
      </trkpt>
      <trkpt lat="49.0966" lon="7.06113">
        <ele>312.60000610352</ele>
        <time>2022-07-02T14:29:31.000Z</time>
      </trkpt>
      <trkpt lat="49.09636" lon="7.06075">
        <ele>315.39999389648</ele>
        <time>2022-07-02T14:29:10.000Z</time>
      </trkpt>
      <trkpt lat="49.09621" lon="7.06045">
        <ele>315</ele>
        <time>2022-07-02T14:28:48.000Z</time>
      </trkpt>
      <trkpt lat="49.09606" lon="7.06003">
        <ele>314.20001220703</ele>
        <time>2022-07-02T14:28:27.000Z</time>
      </trkpt>
      <trkpt lat="49.09602" lon="7.05962">
        <ele>312.60000610352</ele>
        <time>2022-07-02T14:28:06.000Z</time>
      </trkpt>
      <trkpt lat="49.09587" lon="7.05931">
        <ele>313.39999389648</ele>
        <time>2022-07-02T14:27:45.000Z</time>
      </trkpt>
      <trkpt lat="49.09581" lon="7.05891">
        <ele>311.60000610352</ele>
        <time>2022-07-02T14:27:10.000Z</time>
      </trkpt>
      <trkpt lat="49.09582" lon="7.05849">
        <ele>311.60000610352</ele>
        <time>2022-07-02T14:26:49.000Z</time>
      </trkpt>
      <trkpt lat="49.0959" lon="7.05808">
        <ele>311.39999389648</ele>
        <time>2022-07-02T14:26:28.000Z</time>
      </trkpt>
      <trkpt lat="49.096" lon="7.05769">
        <ele>310.60000610352</ele>
        <time>2022-07-02T14:26:06.000Z</time>
      </trkpt>
      <trkpt lat="49.09605" lon="7.0573">
        <ele>311.20001220703</ele>
        <time>2022-07-02T14:25:44.000Z</time>
      </trkpt>
      <trkpt lat="49.09613" lon="7.05685">
        <ele>312.39999389648</ele>
        <time>2022-07-02T14:25:23.000Z</time>
      </trkpt>
      <trkpt lat="49.09621" lon="7.05644">
        <ele>313.60000610352</ele>
        <time>2022-07-02T14:24:59.000Z</time>
      </trkpt>
      <trkpt lat="49.09633" lon="7.056">
        <ele>315.39999389648</ele>
        <time>2022-07-02T14:24:38.000Z</time>
      </trkpt>
      <trkpt lat="49.09637" lon="7.05551">
        <ele>315.20001220703</ele>
        <time>2022-07-02T14:24:17.000Z</time>
      </trkpt>
      <trkpt lat="49.09639" lon="7.05508">
        <ele>315.39999389648</ele>
        <time>2022-07-02T14:23:56.000Z</time>
      </trkpt>
      <trkpt lat="49.09652" lon="7.05462">
        <ele>317.20001220703</ele>
        <time>2022-07-02T14:23:35.000Z</time>
      </trkpt>
      <trkpt lat="49.09662" lon="7.05425">
        <ele>319.39999389648</ele>
        <time>2022-07-02T14:23:13.000Z</time>
      </trkpt>
      <trkpt lat="49.09668" lon="7.05381">
        <ele>317.39999389648</ele>
        <time>2022-07-02T14:22:52.000Z</time>
      </trkpt>
      <trkpt lat="49.0967" lon="7.05332">
        <ele>313.60000610352</ele>
        <time>2022-07-02T14:22:31.000Z</time>
      </trkpt>
      <trkpt lat="49.09665" lon="7.05285">
        <ele>311.20001220703</ele>
        <time>2022-07-02T14:22:10.000Z</time>
      </trkpt>
      <trkpt lat="49.09664" lon="7.05238">
        <ele>309.60000610352</ele>
        <time>2022-07-02T14:21:49.000Z</time>
      </trkpt>
      <trkpt lat="49.0966" lon="7.05195">
        <ele>310</ele>
        <time>2022-07-02T14:21:28.000Z</time>
      </trkpt>
      <trkpt lat="49.09657" lon="7.05153">
        <ele>310.39999389648</ele>
        <time>2022-07-02T14:21:07.000Z</time>
      </trkpt>
      <trkpt lat="49.09649" lon="7.05106">
        <ele>309.60000610352</ele>
        <time>2022-07-02T14:20:46.000Z</time>
      </trkpt>
      <trkpt lat="49.09643" lon="7.05059">
        <ele>308.20001220703</ele>
        <time>2022-07-02T14:20:25.000Z</time>
      </trkpt>
      <trkpt lat="49.09639" lon="7.05019">
        <ele>307.39999389648</ele>
        <time>2022-07-02T14:20:04.000Z</time>
      </trkpt>
      <trkpt lat="49.09634" lon="7.04975">
        <ele>307.60000610352</ele>
        <time>2022-07-02T14:19:43.000Z</time>
      </trkpt>
      <trkpt lat="49.09611" lon="7.04943">
        <ele>305.39999389648</ele>
        <time>2022-07-02T14:19:22.000Z</time>
      </trkpt>
      <trkpt lat="49.09589" lon="7.04921">
        <ele>304.60000610352</ele>
        <time>2022-07-02T14:18:54.000Z</time>
      </trkpt>
      <trkpt lat="49.09575" lon="7.04886">
        <ele>306.20001220703</ele>
        <time>2022-07-02T14:18:32.000Z</time>
      </trkpt>
      <trkpt lat="49.0956" lon="7.04852">
        <ele>304.39999389648</ele>
        <time>2022-07-02T14:18:09.000Z</time>
      </trkpt>
      <trkpt lat="49.09537" lon="7.04826">
        <ele>302</ele>
        <time>2022-07-02T14:17:48.000Z</time>
      </trkpt>
      <trkpt lat="49.09515" lon="7.04796">
        <ele>299.39999389648</ele>
        <time>2022-07-02T14:17:27.000Z</time>
      </trkpt>
      <trkpt lat="49.09495" lon="7.04769">
        <ele>298</ele>
        <time>2022-07-02T14:17:04.000Z</time>
      </trkpt>
      <trkpt lat="49.09468" lon="7.04753">
        <ele>296.39999389648</ele>
        <time>2022-07-02T14:16:43.000Z</time>
      </trkpt>
      <trkpt lat="49.09443" lon="7.04727">
        <ele>291.60000610352</ele>
        <time>2022-07-02T14:16:22.000Z</time>
      </trkpt>
      <trkpt lat="49.09422" lon="7.04701">
        <ele>294.39999389648</ele>
        <time>2022-07-02T14:15:59.000Z</time>
      </trkpt>
      <trkpt lat="49.09398" lon="7.04683">
        <ele>294.39999389648</ele>
        <time>2022-07-02T14:15:32.000Z</time>
      </trkpt>
      <trkpt lat="49.09376" lon="7.0466">
        <ele>294.39999389648</ele>
        <time>2022-07-02T14:15:10.000Z</time>
      </trkpt>
      <trkpt lat="49.09351" lon="7.04641">
        <ele>293</ele>
        <time>2022-07-02T14:14:49.000Z</time>
      </trkpt>
      <trkpt lat="49.09325" lon="7.0462">
        <ele>292.39999389648</ele>
        <time>2022-07-02T14:14:28.000Z</time>
      </trkpt>
      <trkpt lat="49.09302" lon="7.04597">
        <ele>290</ele>
        <time>2022-07-02T14:14:04.000Z</time>
      </trkpt>
      <trkpt lat="49.09282" lon="7.04566">
        <ele>291</ele>
        <time>2022-07-02T14:13:43.000Z</time>
      </trkpt>
      <trkpt lat="49.09256" lon="7.04548">
        <ele>289</ele>
        <time>2022-07-02T14:13:20.000Z</time>
      </trkpt>
      <trkpt lat="49.09243" lon="7.04509">
        <ele>287.20001220703</ele>
        <time>2022-07-02T14:12:59.000Z</time>
      </trkpt>
      <trkpt lat="49.09231" lon="7.04469">
        <ele>289.39999389648</ele>
        <time>2022-07-02T14:12:38.000Z</time>
      </trkpt>
      <trkpt lat="49.09219" lon="7.04434">
        <ele>291</ele>
        <time>2022-07-02T14:12:17.000Z</time>
      </trkpt>
      <trkpt lat="49.09196" lon="7.04418">
        <ele>290.39999389648</ele>
        <time>2022-07-02T14:11:55.000Z</time>
      </trkpt>
      <trkpt lat="49.0917" lon="7.04407">
        <ele>290.20001220703</ele>
        <time>2022-07-02T14:10:59.000Z</time>
      </trkpt>
      <trkpt lat="49.09145" lon="7.04423">
        <ele>290.39999389648</ele>
        <time>2022-07-02T14:10:38.000Z</time>
      </trkpt>
      <trkpt lat="49.0913" lon="7.04447">
        <ele>242.1</ele>
        <time>2022-07-02T14:10:03.000Z</time>
        <extensions>
          <visugpx:TrkExtension xmlns:visugpx="https://www.visugpx.com/editgpx/">
            <visugpx:node>1</visugpx:node>
            </visugpx:TrkExtension>
        </extensions>
      </trkpt>
      <trkpt lat="49.09136" lon="7.04455">
        <ele>290.39999389648</ele>
        <time>2022-07-02T14:00:56.000Z</time>
      </trkpt>
      <trkpt lat="49.09154" lon="7.04497">
        <ele>290</ele>
        <time>2022-07-02T14:00:35.000Z</time>
      </trkpt>
      <trkpt lat="49.09171" lon="7.04528">
        <ele>289.60000610352</ele>
        <time>2022-07-02T14:00:14.000Z</time>
      </trkpt>
      <trkpt lat="49.09176" lon="7.04569">
        <ele>288</ele>
        <time>2022-07-02T13:59:53.000Z</time>
      </trkpt>
      <trkpt lat="49.092" lon="7.04589">
        <ele>289.39999389648</ele>
        <time>2022-07-02T13:59:32.000Z</time>
      </trkpt>
      <trkpt lat="49.09226" lon="7.04615">
        <ele>288.60000610352</ele>
        <time>2022-07-02T13:59:11.000Z</time>
      </trkpt>
      <trkpt lat="49.09227" lon="7.04617">
        <ele>288.60000610352</ele>
        <time>2022-07-02T13:59:10.000Z</time>
      </trkpt>
      <trkpt lat="49.09226" lon="7.0466">
        <ele>288.60000610352</ele>
        <time>2022-07-02T13:58:48.000Z</time>
      </trkpt>
      <trkpt lat="49.0922" lon="7.04705">
        <ele>288.39999389648</ele>
        <time>2022-07-02T13:58:27.000Z</time>
      </trkpt>
      <trkpt lat="49.09222" lon="7.04745">
        <ele>288</ele>
        <time>2022-07-02T13:58:06.000Z</time>
      </trkpt>
      <trkpt lat="49.09235" lon="7.04791">
        <ele>287.20001220703</ele>
        <time>2022-07-02T13:57:45.000Z</time>
      </trkpt>
      <trkpt lat="49.09228" lon="7.0483">
        <ele>287.20001220703</ele>
        <time>2022-07-02T13:57:24.000Z</time>
      </trkpt>
      <trkpt lat="49.09218" lon="7.04864">
        <ele>286.39999389648</ele>
        <time>2022-07-02T13:57:03.000Z</time>
      </trkpt>
      <trkpt lat="49.09235" lon="7.04905">
        <ele>285.60000610352</ele>
        <time>2022-07-02T13:56:42.000Z</time>
      </trkpt>
      <trkpt lat="49.09251" lon="7.04949">
        <ele>283.60000610352</ele>
        <time>2022-07-02T13:56:21.000Z</time>
      </trkpt>
      <trkpt lat="49.09255" lon="7.0499">
        <ele>284</ele>
        <time>2022-07-02T13:55:59.000Z</time>
      </trkpt>
      <trkpt lat="49.0926" lon="7.05031">
        <ele>284.20001220703</ele>
        <time>2022-07-02T13:55:37.000Z</time>
      </trkpt>
      <trkpt lat="49.09258" lon="7.05072">
        <ele>284.39999389648</ele>
        <time>2022-07-02T13:55:16.000Z</time>
      </trkpt>
      <trkpt lat="49.09252" lon="7.0511">
        <ele>283.60000610352</ele>
        <time>2022-07-02T13:54:54.000Z</time>
      </trkpt>
      <trkpt lat="49.09235" lon="7.05144">
        <ele>282.39999389648</ele>
        <time>2022-07-02T13:54:31.000Z</time>
      </trkpt>
      <trkpt lat="49.0923" lon="7.05185">
        <ele>283.20001220703</ele>
        <time>2022-07-02T13:54:10.000Z</time>
      </trkpt>
      <trkpt lat="49.09212" lon="7.05223">
        <ele>281.20001220703</ele>
        <time>2022-07-02T13:53:49.000Z</time>
      </trkpt>
      <trkpt lat="49.09199" lon="7.05258">
        <ele>281.39999389648</ele>
        <time>2022-07-02T13:53:21.000Z</time>
      </trkpt>
      <trkpt lat="49.0918" lon="7.05292">
        <ele>282</ele>
        <time>2022-07-02T13:53:00.000Z</time>
      </trkpt>
      <trkpt lat="49.09171" lon="7.05332">
        <ele>281.20001220703</ele>
        <time>2022-07-02T13:52:35.000Z</time>
      </trkpt>
      <trkpt lat="49.09172" lon="7.05375">
        <ele>281.39999389648</ele>
        <time>2022-07-02T13:52:14.000Z</time>
      </trkpt>
      <trkpt lat="49.09152" lon="7.05406">
        <ele>280.60000610352</ele>
        <time>2022-07-02T13:51:53.000Z</time>
      </trkpt>
      <trkpt lat="49.09146" lon="7.05458">
        <ele>277.60000610352</ele>
        <time>2022-07-02T13:51:32.000Z</time>
      </trkpt>
      <trkpt lat="49.09141" lon="7.05499">
        <ele>277.39999389648</ele>
        <time>2022-07-02T13:51:04.000Z</time>
      </trkpt>
      <trkpt lat="49.09137" lon="7.0554">
        <ele>279</ele>
        <time>2022-07-02T13:50:43.000Z</time>
      </trkpt>
      <trkpt lat="49.09119" lon="7.05573">
        <ele>279.20001220703</ele>
        <time>2022-07-02T13:50:19.000Z</time>
      </trkpt>
      <trkpt lat="49.09099" lon="7.05602">
        <ele>279.60000610352</ele>
        <time>2022-07-02T13:49:55.000Z</time>
      </trkpt>
      <trkpt lat="49.09083" lon="7.05633">
        <ele>279.60000610352</ele>
        <time>2022-07-02T13:49:33.000Z</time>
      </trkpt>
      <trkpt lat="49.09071" lon="7.0567">
        <ele>279.60000610352</ele>
        <time>2022-07-02T13:49:12.000Z</time>
      </trkpt>
      <trkpt lat="49.09054" lon="7.057">
        <ele>280.20001220703</ele>
        <time>2022-07-02T13:48:48.000Z</time>
      </trkpt>
      <trkpt lat="49.09043" lon="7.05737">
        <ele>280.39999389648</ele>
        <time>2022-07-02T13:48:27.000Z</time>
      </trkpt>
      <trkpt lat="49.09025" lon="7.05769">
        <ele>280.39999389648</ele>
        <time>2022-07-02T13:47:58.000Z</time>
      </trkpt>
      <trkpt lat="49.09021" lon="7.05813">
        <ele>280.20001220703</ele>
        <time>2022-07-02T13:47:37.000Z</time>
      </trkpt>
      <trkpt lat="49.09001" lon="7.05867">
        <ele>277.20001220703</ele>
        <time>2022-07-02T13:47:16.000Z</time>
      </trkpt>
      <trkpt lat="49.08983" lon="7.05904">
        <ele>277.39999389648</ele>
        <time>2022-07-02T13:46:45.000Z</time>
      </trkpt>
      <trkpt lat="49.08975" lon="7.05945">
        <ele>276</ele>
        <time>2022-07-02T13:46:23.000Z</time>
      </trkpt>
      <trkpt lat="49.08965" lon="7.05982">
        <ele>275.20001220703</ele>
        <time>2022-07-02T13:46:01.000Z</time>
      </trkpt>
      <trkpt lat="49.08962" lon="7.06024">
        <ele>273</ele>
        <time>2022-07-02T13:45:40.000Z</time>
      </trkpt>
      <trkpt lat="49.08956" lon="7.06061">
        <ele>272</ele>
        <time>2022-07-02T13:45:17.000Z</time>
      </trkpt>
      <trkpt lat="49.08938" lon="7.06088">
        <ele>271.39999389648</ele>
        <time>2022-07-02T13:44:48.000Z</time>
      </trkpt>
      <trkpt lat="49.08931" lon="7.06123">
        <ele>270.39999389648</ele>
        <time>2022-07-02T13:44:26.000Z</time>
      </trkpt>
      <trkpt lat="49.0892" lon="7.06163">
        <ele>269.39999389648</ele>
        <time>2022-07-02T13:44:05.000Z</time>
      </trkpt>
      <trkpt lat="49.08907" lon="7.06198">
        <ele>267.60000610352</ele>
        <time>2022-07-02T13:43:41.000Z</time>
      </trkpt>
      <trkpt lat="49.0888" lon="7.06224">
        <ele>269.39999389648</ele>
        <time>2022-07-02T13:43:20.000Z</time>
      </trkpt>
      <trkpt lat="49.08867" lon="7.06255">
        <ele>270.60000610352</ele>
        <time>2022-07-02T13:42:50.000Z</time>
      </trkpt>
      <trkpt lat="49.08867" lon="7.06293">
        <ele>269.39999389648</ele>
        <time>2022-07-02T13:42:26.000Z</time>
      </trkpt>
      <trkpt lat="49.08854" lon="7.06328">
        <ele>268</ele>
        <time>2022-07-02T13:42:02.000Z</time>
      </trkpt>
      <trkpt lat="49.08836" lon="7.0636">
        <ele>267.39999389648</ele>
        <time>2022-07-02T13:41:31.000Z</time>
      </trkpt>
      <trkpt lat="49.08815" lon="7.06383">
        <ele>267.60000610352</ele>
        <time>2022-07-02T13:41:09.000Z</time>
      </trkpt>
      <trkpt lat="49.08798" lon="7.06414">
        <ele>268.39999389648</ele>
        <time>2022-07-02T13:40:44.000Z</time>
      </trkpt>
      <trkpt lat="49.08781" lon="7.06446">
        <ele>268</ele>
        <time>2022-07-02T13:40:21.000Z</time>
      </trkpt>
      <trkpt lat="49.08768" lon="7.06482">
        <ele>268.20001220703</ele>
        <time>2022-07-02T13:39:51.000Z</time>
      </trkpt>
      <trkpt lat="49.08772" lon="7.06521">
        <ele>267.39999389648</ele>
        <time>2022-07-02T13:39:27.000Z</time>
      </trkpt>
      <trkpt lat="49.08774" lon="7.06546">
        <ele>217</ele>
        <time>2022-07-02T13:39:00.000Z</time>
      </trkpt>
      <trkpt lat="49.08782" lon="7.06541">
        <ele>266</ele>
        <time>2022-07-02T15:01:28.000Z</time>
      </trkpt>
      <trkpt lat="49.08806" lon="7.06535">
        <ele>267.39999389648</ele>
        <time>2022-07-02T15:01:01.000Z</time>
      </trkpt>
      <trkpt lat="49.0881" lon="7.06503">
        <ele>272.79998779297</ele>
        <time>2022-07-02T15:00:38.000Z</time>
      </trkpt>
      <trkpt lat="49.08832" lon="7.06486">
        <ele>275.60000610352</ele>
        <time>2022-07-02T15:00:17.000Z</time>
      </trkpt>
      <trkpt lat="49.08858" lon="7.06466">
        <ele>277</ele>
        <time>2022-07-02T14:59:56.000Z</time>
      </trkpt>
      <trkpt lat="49.08884" lon="7.06469">
        <ele>278.60000610352</ele>
        <time>2022-07-02T14:59:32.000Z</time>
      </trkpt>
      <trkpt lat="49.0891" lon="7.06464">
        <ele>281.60000610352</ele>
        <time>2022-07-02T14:59:05.000Z</time>
      </trkpt>
      <trkpt lat="49.08941" lon="7.06451">
        <ele>283.39999389648</ele>
        <time>2022-07-02T14:58:44.000Z</time>
      </trkpt>
      <trkpt lat="49.08942" lon="7.06448">
        <ele>283.39999389648</ele>
        <time>2022-07-02T14:58:43.000Z</time>
      </trkpt>
      <trkpt lat="49.08963" lon="7.06438">
        <ele>287</ele>
        <time>2022-07-02T14:58:18.000Z</time>
      </trkpt>
      <trkpt lat="49.08988" lon="7.0641">
        <ele>287.39999389648</ele>
        <time>2022-07-02T14:57:57.000Z</time>
      </trkpt>
      <trkpt lat="49.0901" lon="7.06395">
        <ele>291.20001220703</ele>
        <time>2022-07-02T14:57:33.000Z</time>
      </trkpt>
      <trkpt lat="49.09038" lon="7.06391">
        <ele>292</ele>
        <time>2022-07-02T14:57:12.000Z</time>
      </trkpt>
      <trkpt lat="49.09066" lon="7.06398">
        <ele>292</ele>
        <time>2022-07-02T14:56:51.000Z</time>
      </trkpt>
      <trkpt lat="49.09094" lon="7.06395">
        <ele>294.60000610352</ele>
        <time>2022-07-02T14:56:27.000Z</time>
      </trkpt>
      <trkpt lat="49.0912" lon="7.0639">
        <ele>297.60000610352</ele>
        <time>2022-07-02T14:56:06.000Z</time>
      </trkpt>
      <trkpt lat="49.0915" lon="7.06393">
        <ele>297.60000610352</ele>
        <time>2022-07-02T14:55:45.000Z</time>
      </trkpt>
      <trkpt lat="49.09178" lon="7.06387">
        <ele>299</ele>
        <time>2022-07-02T14:55:21.000Z</time>
      </trkpt>
      <trkpt lat="49.09204" lon="7.06391">
        <ele>298.60000610352</ele>
        <time>2022-07-02T14:54:59.000Z</time>
      </trkpt>
      <trkpt lat="49.09227" lon="7.06396">
        <ele>300.39999389648</ele>
        <time>2022-07-02T14:54:36.000Z</time>
      </trkpt>
      <trkpt lat="49.09246" lon="7.06427">
        <ele>301.20001220703</ele>
        <time>2022-07-02T14:54:14.000Z</time>
      </trkpt>
      <trkpt lat="49.09277" lon="7.06452">
        <ele>299.60000610352</ele>
        <time>2022-07-02T14:53:53.000Z</time>
      </trkpt>
      <trkpt lat="49.09299" lon="7.06472">
        <ele>302.20001220703</ele>
        <time>2022-07-02T14:53:32.000Z</time>
      </trkpt>
      <trkpt lat="49.09321" lon="7.0651">
        <ele>301.20001220703</ele>
        <time>2022-07-02T14:53:11.000Z</time>
      </trkpt>
      <trkpt lat="49.09341" lon="7.06504">
        <ele>304.20001220703</ele>
        <time>2022-07-02T14:52:44.000Z</time>
      </trkpt>
      <trkpt lat="49.09352" lon="7.06466">
        <ele>303.60000610352</ele>
        <time>2022-07-02T14:52:23.000Z</time>
      </trkpt>
      <trkpt lat="49.09374" lon="7.06453">
        <ele>305.20001220703</ele>
        <time>2022-07-02T14:52:01.000Z</time>
      </trkpt>
      <trkpt lat="49.094" lon="7.06459">
        <ele>305.39999389648</ele>
        <time>2022-07-02T14:51:36.000Z</time>
      </trkpt>
      <trkpt lat="49.09428" lon="7.06462">
        <ele>307.60000610352</ele>
        <time>2022-07-02T14:51:14.000Z</time>
      </trkpt>
      <trkpt lat="49.09452" lon="7.06461">
        <ele>306.39999389648</ele>
        <time>2022-07-02T14:50:49.000Z</time>
      </trkpt>
      <trkpt lat="49.09476" lon="7.06476">
        <ele>304.60000610352</ele>
        <time>2022-07-02T14:50:25.000Z</time>
      </trkpt>
      <trkpt lat="49.09495" lon="7.06502">
        <ele>299.60000610352</ele>
        <time>2022-07-02T14:50:00.000Z</time>
      </trkpt>
      <trkpt lat="49.09521" lon="7.06508">
        <ele>298.20001220703</ele>
        <time>2022-07-02T14:49:35.000Z</time>
      </trkpt>
      <trkpt lat="49.09546" lon="7.06484">
        <ele>296.39999389648</ele>
        <time>2022-07-02T14:47:57.000Z</time>
      </trkpt>
      <trkpt lat="49.09558" lon="7.06481">
        <ele>297</ele>
        <time>2022-07-02T14:46:05.000Z</time>
      </trkpt>
      <trkpt lat="49.09582" lon="7.06475">
        <ele>295.20001220703</ele>
        <time>2022-07-02T14:45:27.000Z</time>
      </trkpt>
      <trkpt lat="49.09607" lon="7.06475">
        <ele>289.39999389648</ele>
        <time>2022-07-02T14:44:54.000Z</time>
      </trkpt>
      <trkpt lat="49.09629" lon="7.06504">
        <ele>289</ele>
        <time>2022-07-02T14:44:33.000Z</time>
      </trkpt>
      <trkpt lat="49.09626" lon="7.06536">
        <ele>291.20001220703</ele>
        <time>2022-07-02T14:44:12.000Z</time>
      </trkpt>
      <trkpt lat="49.09639" lon="7.06573">
        <ele>291.39999389648</ele>
        <time>2022-07-02T14:43:51.000Z</time>
      </trkpt>
      <trkpt lat="49.0966" lon="7.06607">
        <ele>291.60000610352</ele>
        <time>2022-07-02T14:43:30.000Z</time>
      </trkpt>
      <trkpt lat="49.0968" lon="7.06631">
        <ele>296</ele>
        <time>2022-07-02T14:42:14.000Z</time>
      </trkpt>
      <trkpt lat="49.09684" lon="7.06672">
        <ele>296.60000610352</ele>
        <time>2022-07-02T14:41:32.000Z</time>
      </trkpt>
      <trkpt lat="49.09688" lon="7.06717">
        <ele>296.60000610352</ele>
        <time>2022-07-02T14:41:11.000Z</time>
      </trkpt>
      <trkpt lat="49.0971" lon="7.06746">
        <ele>298.60000610352</ele>
        <time>2022-07-02T14:40:50.000Z</time>
      </trkpt>
      <trkpt lat="49.09726" lon="7.06785">
        <ele>299</ele>
        <time>2022-07-02T14:40:29.000Z</time>
      </trkpt>
      <trkpt lat="49.09748" lon="7.06811">
        <ele>299</ele>
        <time>2022-07-02T14:40:08.000Z</time>
      </trkpt>
      <trkpt lat="49.09773" lon="7.06836">
        <ele>301.39999389648</ele>
        <time>2022-07-02T14:39:47.000Z</time>
      </trkpt>
      <trkpt lat="49.09787" lon="7.06811">
        <ele>300.60000610352</ele>
        <time>2022-07-02T14:39:09.000Z</time>
      </trkpt>
      <trkpt lat="49.09811" lon="7.06778">
        <ele>304</ele>
        <time>2022-07-02T14:38:48.000Z</time>
      </trkpt>
      <trkpt lat="49.09824" lon="7.06747">
        <ele>305</ele>
        <time>2022-07-02T14:38:21.000Z</time>
      </trkpt>
      <trkpt lat="49.0985" lon="7.06725">
        <ele>306.39999389648</ele>
        <time>2022-07-02T14:38:00.000Z</time>
      </trkpt>
      <trkpt lat="49.09877" lon="7.06691">
        <ele>252.4</ele>
        <time>2022-07-02T14:37:17.000Z</time>
      </trkpt>
      <trkpt lat="49.0991" lon="7.06798">
        <ele>252.5</ele>
      </trkpt>
      <trkpt lat="49.09973" lon="7.06867">
        <ele>247.9</ele>
      </trkpt>
      <trkpt lat="49.10083" lon="7.07031">
        <ele>233.1</ele>
      </trkpt>
      <trkpt lat="49.10089" lon="7.0703">
        <ele>231.7</ele>
        <extensions>
          <visugpx:TrkExtension xmlns:visugpx="https://www.visugpx.com/editgpx/">
            <visugpx:node>3</visugpx:node>
            </visugpx:TrkExtension>
        </extensions>
      </trkpt>
    </trkseg>
  </trk>
</gpx>